sensor_id;sensor_type;location;lat;lon;timestamp;pressure;altitude;pressure_sealevel;temperature;humidity
71964;BME280;59834;52.124;5.422;2022-08-25T00:01:36;101779.47;;;22.16;76.08
71964;BME280;59834;52.124;5.422;2022-08-25T00:04:06;101773.75;;;22.10;76.68
71964;BME280;59834;52.124;5.422;2022-08-25T00:06:34;101769.00;;;22.04;77.45
71964;BME280;59834;52.124;5.422;2022-08-25T00:09:00;101770.13;;;22.02;76.74
71964;BME280;59834;52.124;5.422;2022-08-25T00:11:29;101765.94;;;21.99;77.59
71964;BME280;59834;52.124;5.422;2022-08-25T00:13:59;101764.44;;;21.97;77.17
71964;BME280;59834;52.124;5.422;2022-08-25T00:16:27;101766.22;;;21.96;77.14
71964;BME280;59834;52.124;5.422;2022-08-25T00:18:59;101757.56;;;21.94;77.31
71964;BME280;59834;52.124;5.422;2022-08-25T00:21:27;101762.91;;;21.94;77.33
71964;BME280;59834;52.124;5.422;2022-08-25T00:23:53;101755.19;;;21.91;77.93
71964;BME280;59834;52.124;5.422;2022-08-25T00:26:20;101754.66;;;21.87;77.65
71964;BME280;59834;52.124;5.422;2022-08-25T00:28:47;101755.50;;;21.88;77.65
71964;BME280;59834;52.124;5.422;2022-08-25T00:31:16;101761.41;;;21.82;77.76
71964;BME280;59834;52.124;5.422;2022-08-25T00:33:44;101757.09;;;21.81;77.39
71964;BME280;59834;52.124;5.422;2022-08-25T00:36:13;101760.75;;;21.80;77.25
71964;BME280;59834;52.124;5.422;2022-08-25T00:38:41;101752.34;;;21.75;77.49
71964;BME280;59834;52.124;5.422;2022-08-25T00:41:10;101751.78;;;21.71;77.68
71964;BME280;59834;52.124;5.422;2022-08-25T00:46:08;101758.00;;;21.62;77.94
71964;BME280;59834;52.124;5.422;2022-08-25T00:48:36;101758.28;;;21.59;77.81
71964;BME280;59834;52.124;5.422;2022-08-25T00:51:06;101761.41;;;21.54;77.72
71964;BME280;59834;52.124;5.422;2022-08-25T00:53:37;101764.38;;;21.51;77.60
71964;BME280;59834;52.124;5.422;2022-08-25T00:56:05;101755.28;;;21.44;78.21
71964;BME280;59834;52.124;5.422;2022-08-25T00:58:33;101752.91;;;21.41;78.14
71964;BME280;59834;52.124;5.422;2022-08-25T01:01:00;101754.44;;;21.34;77.93
71964;BME280;59834;52.124;5.422;2022-08-25T01:03:29;101750.25;;;21.31;78.81
71964;BME280;59834;52.124;5.422;2022-08-25T01:06:03;101747.88;;;21.28;77.96
71964;BME280;59834;52.124;5.422;2022-08-25T01:08:31;101751.66;;;21.26;78.42
71964;BME280;59834;52.124;5.422;2022-08-25T01:11:01;101751.94;;;21.23;78.66
71964;BME280;59834;52.124;5.422;2022-08-25T01:13:32;101756.31;;;21.24;77.87
71964;BME280;59834;52.124;5.422;2022-08-25T01:15:59;101755.47;;;21.23;78.48
71964;BME280;59834;52.124;5.422;2022-08-25T01:18:27;101753.94;;;21.21;78.13
71964;BME280;59834;52.124;5.422;2022-08-25T01:20:56;101747.06;;;21.18;77.94
71964;BME280;59834;52.124;5.422;2022-08-25T01:23:23;101742.72;;;21.17;77.90
71964;BME280;59834;52.124;5.422;2022-08-25T01:25:57;101736.84;;;21.13;78.30
71964;BME280;59834;52.124;5.422;2022-08-25T01:28:25;101740.81;;;21.09;77.98
71964;BME280;59834;52.124;5.422;2022-08-25T01:30:52;101742.88;;;21.06;78.10
71964;BME280;59834;52.124;5.422;2022-08-25T01:33:18;101739.53;;;21.04;78.00
71964;BME280;59834;52.124;5.422;2022-08-25T01:35:46;101737.16;;;21.01;78.52
71964;BME280;59834;52.124;5.422;2022-08-25T01:38:13;101743.47;;;21.00;78.45
71964;BME280;59834;52.124;5.422;2022-08-25T01:40:40;101741.94;;;20.97;78.21
71964;BME280;59834;52.124;5.422;2022-08-25T01:45:44;101754.00;;;20.91;78.33
71964;BME280;59834;52.124;5.422;2022-08-25T01:48:12;101746.16;;;20.90;78.07
71964;BME280;59834;52.124;5.422;2022-08-25T01:50:40;101735.50;;;20.90;77.57
71964;BME280;59834;52.124;5.422;2022-08-25T01:53:21;101743.63;;;20.88;78.14
71964;BME280;59834;52.124;5.422;2022-08-25T01:55:48;101737.75;;;20.85;77.88
71964;BME280;59834;52.124;5.422;2022-08-25T01:58:28;101738.19;;;20.80;77.81
71964;BME280;59834;52.124;5.422;2022-08-25T02:00:58;101737.63;;;20.77;78.28
71964;BME280;59834;52.124;5.422;2022-08-25T02:03:26;101742.41;;;20.73;77.79
71964;BME280;59834;52.124;5.422;2022-08-25T02:05:54;101738.03;;;20.72;77.78
71964;BME280;59834;52.124;5.422;2022-08-25T02:08:23;101739.88;;;20.71;77.83
71964;BME280;59834;52.124;5.422;2022-08-25T02:10:51;101747.28;;;20.68;77.71
71964;BME280;59834;52.124;5.422;2022-08-25T02:13:19;101738.47;;;20.67;77.58
71964;BME280;59834;52.124;5.422;2022-08-25T02:15:54;101732.75;;;20.62;77.38
71964;BME280;59834;52.124;5.422;2022-08-25T02:18:23;101734.72;;;20.60;77.41
71964;BME280;59834;52.124;5.422;2022-08-25T02:20:51;101736.38;;;20.61;78.06
71964;BME280;59834;52.124;5.422;2022-08-25T02:23:18;101734.72;;;20.60;76.67
71964;BME280;59834;52.124;5.422;2022-08-25T02:25:46;101737.38;;;20.60;77.38
71964;BME280;59834;52.124;5.422;2022-08-25T02:28:12;101738.34;;;20.59;77.52
71964;BME280;59834;52.124;5.422;2022-08-25T02:30:42;101741.97;;;20.58;77.36
71964;BME280;59834;52.124;5.422;2022-08-25T02:33:09;101739.47;;;20.57;77.75
71964;BME280;59834;52.124;5.422;2022-08-25T02:35:36;101735.97;;;20.56;77.75
71964;BME280;59834;52.124;5.422;2022-08-25T02:38:04;101731.78;;;20.54;77.60
71964;BME280;59834;52.124;5.422;2022-08-25T02:40:31;101733.59;;;20.53;77.59
71964;BME280;59834;52.124;5.422;2022-08-25T02:42:59;101727.56;;;20.51;78.36
71964;BME280;59834;52.124;5.422;2022-08-25T02:45:26;101727.56;;;20.51;77.74
71964;BME280;59834;52.124;5.422;2022-08-25T02:47:53;101725.16;;;20.48;78.13
71964;BME280;59834;52.124;5.422;2022-08-25T02:50:19;101720.09;;;20.45;77.58
71964;BME280;59834;52.124;5.422;2022-08-25T02:52:47;101716.22;;;20.39;77.78
71964;BME280;59834;52.124;5.422;2022-08-25T02:55:16;101725.03;;;20.40;77.29
71964;BME280;59834;52.124;5.422;2022-08-25T02:57:45;101717.59;;;20.43;77.04
71964;BME280;59834;52.124;5.422;2022-08-25T03:00:14;101722.94;;;20.43;76.82
71964;BME280;59834;52.124;5.422;2022-08-25T03:02:44;101710.63;;;20.42;76.86
71964;BME280;59834;52.124;5.422;2022-08-25T03:05:13;101721.25;;;20.42;76.75
71964;BME280;59834;52.124;5.422;2022-08-25T03:07:41;101717.06;;;20.40;76.77
71964;BME280;59834;52.124;5.422;2022-08-25T03:10:11;101715.38;;;20.39;76.06
71964;BME280;59834;52.124;5.422;2022-08-25T03:12:39;101710.06;;;20.39;76.07
71964;BME280;59834;52.124;5.422;2022-08-25T03:15:11;101699.56;;;20.37;75.94
71964;BME280;59834;52.124;5.422;2022-08-25T03:17:39;101697.16;;;20.34;76.01
71964;BME280;59834;52.124;5.422;2022-08-25T03:20:06;101695.63;;;20.32;75.68
71964;BME280;59834;52.124;5.422;2022-08-25T03:22:33;101690.75;;;20.27;75.62
71964;BME280;59834;52.124;5.422;2022-08-25T03:25:00;101698.00;;;20.25;75.18
71964;BME280;59834;52.124;5.422;2022-08-25T03:27:49;101695.50;;;20.23;74.77
71964;BME280;59834;52.124;5.422;2022-08-25T03:30:17;101689.19;;;20.24;74.48
71964;BME280;59834;52.124;5.422;2022-08-25T03:32:44;101689.34;;;20.23;74.69
71964;BME280;59834;52.124;5.422;2022-08-25T03:35:11;101689.47;;;20.21;74.59
71964;BME280;59834;52.124;5.422;2022-08-25T03:37:38;101690.72;;;20.17;74.93
71964;BME280;59834;52.124;5.422;2022-08-25T03:40:08;101682.19;;;20.14;74.79
71964;BME280;59834;52.124;5.422;2022-08-25T03:42:43;101675.34;;;20.11;74.56
71964;BME280;59834;52.124;5.422;2022-08-25T03:45:12;101683.47;;;20.10;74.00
71964;BME280;59834;52.124;5.422;2022-08-25T03:47:39;101673.94;;;20.07;74.71
71964;BME280;59834;52.124;5.422;2022-08-25T03:50:08;101673.53;;;20.02;74.56
71964;BME280;59834;52.124;5.422;2022-08-25T03:52:36;101669.72;;;19.95;74.75
71964;BME280;59834;52.124;5.422;2022-08-25T03:55:10;101673.63;;;19.91;74.90
71964;BME280;59834;52.124;5.422;2022-08-25T03:57:37;101672.25;;;19.87;74.75
71964;BME280;59834;52.124;5.422;2022-08-25T04:00:06;101673.63;;;19.81;74.75
71964;BME280;59834;52.124;5.422;2022-08-25T04:02:33;101671.13;;;19.80;75.33
71964;BME280;59834;52.124;5.422;2022-08-25T04:05:00;101669.44;;;19.78;75.35
71964;BME280;59834;52.124;5.422;2022-08-25T04:07:26;101663.53;;;19.75;75.24
71964;BME280;59834;52.124;5.422;2022-08-25T04:09:54;101664.69;;;19.72;75.05
71964;BME280;59834;52.124;5.422;2022-08-25T04:12:21;101659.38;;;19.72;74.97
71964;BME280;59834;52.124;5.422;2022-08-25T04:14:49;101672.50;;;19.74;74.86
71964;BME280;59834;52.124;5.422;2022-08-25T04:17:16;101668.28;;;19.71;75.18
71964;BME280;59834;52.124;5.422;2022-08-25T04:19:43;101664.94;;;19.69;74.69
71964;BME280;59834;52.124;5.422;2022-08-25T04:22:09;101657.38;;;19.65;74.68
71964;BME280;59834;52.124;5.422;2022-08-25T04:24:38;101659.59;;;19.60;74.92
71964;BME280;59834;52.124;5.422;2022-08-25T04:27:05;101660.69;;;19.57;75.39
71964;BME280;59834;52.124;5.422;2022-08-25T04:29:32;101652.03;;;19.55;75.74
71964;BME280;59834;52.124;5.422;2022-08-25T04:31:58;101655.78;;;19.52;75.54
71964;BME280;59834;52.124;5.422;2022-08-25T04:34:26;101649.91;;;19.49;76.04
71964;BME280;59834;52.124;5.422;2022-08-25T04:36:58;101656.31;;;19.46;76.44
71964;BME280;59834;52.124;5.422;2022-08-25T04:39:25;101649.72;;;19.41;76.73
71964;BME280;59834;52.124;5.422;2022-08-25T04:41:51;101649.16;;;19.37;76.70
71964;BME280;59834;52.124;5.422;2022-08-25T04:44:18;101645.69;;;19.37;76.78
71964;BME280;59834;52.124;5.422;2022-08-25T04:46:44;101652.09;;;19.34;76.84
71964;BME280;59834;52.124;5.422;2022-08-25T04:49:11;101656.72;;;19.32;76.75
71964;BME280;59834;52.124;5.422;2022-08-25T04:51:39;101646.78;;;19.34;76.66
71964;BME280;59834;52.124;5.422;2022-08-25T04:54:08;101649.16;;;19.37;76.76
71964;BME280;59834;52.124;5.422;2022-08-25T04:56:36;101650.44;;;19.43;76.75
71964;BME280;59834;52.124;5.422;2022-08-25T04:59:07;101653.69;;;19.46;76.03
71964;BME280;59834;52.124;5.422;2022-08-25T05:01:34;101647.25;;;19.49;75.55
71964;BME280;59834;52.124;5.422;2022-08-25T05:04:03;101657.19;;;19.57;75.19
71964;BME280;59834;52.124;5.422;2022-08-25T05:06:30;101656.53;;;19.64;74.45
71964;BME280;59834;52.124;5.422;2022-08-25T05:08:58;101657.66;;;19.71;74.16
71964;BME280;59834;52.124;5.422;2022-08-25T05:11:26;101650.69;;;19.80;74.00
71964;BME280;59834;52.124;5.422;2022-08-25T05:13:54;101643.84;;;19.87;72.89
71964;BME280;59834;52.124;5.422;2022-08-25T05:16:22;101646.78;;;19.94;72.71
71964;BME280;59834;52.124;5.422;2022-08-25T05:18:50;101649.63;;;20.02;72.88
71964;BME280;59834;52.124;5.422;2022-08-25T05:21:20;101655.78;;;20.12;72.30
71964;BME280;59834;52.124;5.422;2022-08-25T05:23:47;101655.63;;;20.23;71.94
71964;BME280;59834;52.124;5.422;2022-08-25T05:26:17;101657.84;;;20.28;71.85
71964;BME280;59834;52.124;5.422;2022-08-25T05:28:48;101661.34;;;20.38;71.08
71964;BME280;59834;52.124;5.422;2022-08-25T05:31:15;101660.50;;;20.57;68.52
71964;BME280;59834;52.124;5.422;2022-08-25T05:33:43;101663.59;;;21.09;67.11
71964;BME280;59834;52.124;5.422;2022-08-25T05:36:11;101662.84;;;21.27;67.60
71964;BME280;59834;52.124;5.422;2022-08-25T05:38:39;101664.75;;;21.62;67.45
71964;BME280;59834;52.124;5.422;2022-08-25T05:41:11;101670.31;;;22.32;63.58
71964;BME280;59834;52.124;5.422;2022-08-25T05:43:40;101672.00;;;23.03;61.33
71964;BME280;59834;52.124;5.422;2022-08-25T05:46:08;101666.97;;;23.76;58.42
71964;BME280;59834;52.124;5.422;2022-08-25T05:48:35;101672.88;;;24.29;56.29
71964;BME280;59834;52.124;5.422;2022-08-25T05:51:04;101667.56;;;24.45;54.79
71964;BME280;59834;52.124;5.422;2022-08-25T05:53:32;101665.19;;;24.18;55.57
71964;BME280;59834;52.124;5.422;2022-08-25T05:56:00;101672.53;;;23.41;57.81
71964;BME280;59834;52.124;5.422;2022-08-25T05:58:28;101672.56;;;23.15;59.25
71964;BME280;59834;52.124;5.422;2022-08-25T06:00:58;101673.94;;;22.93;60.53
71964;BME280;59834;52.124;5.422;2022-08-25T06:03:50;101667.97;;;22.99;60.96
71964;BME280;59834;52.124;5.422;2022-08-25T06:06:24;101675.59;;;23.20;60.05
71964;BME280;59834;52.124;5.422;2022-08-25T06:08:51;101666.34;;;23.06;60.30
71964;BME280;59834;52.124;5.422;2022-08-25T06:11:21;101674.72;;;23.11;60.95
71964;BME280;59834;52.124;5.422;2022-08-25T06:13:50;101669.59;;;23.26;60.32
71964;BME280;59834;52.124;5.422;2022-08-25T06:16:16;101676.22;;;23.14;58.73
71964;BME280;59834;52.124;5.422;2022-08-25T06:18:43;101676.94;;;22.72;60.29
71964;BME280;59834;52.124;5.422;2022-08-25T06:21:12;101678.81;;;22.53;60.52
71964;BME280;59834;52.124;5.422;2022-08-25T06:23:40;101680.38;;;22.38;61.71
71964;BME280;59834;52.124;5.422;2022-08-25T06:26:09;101678.31;;;22.32;62.64
71964;BME280;59834;52.124;5.422;2022-08-25T06:28:46;101675.59;;;22.24;62.06
71964;BME280;59834;52.124;5.422;2022-08-25T06:31:12;101678.94;;;22.26;62.50
71964;BME280;59834;52.124;5.422;2022-08-25T06:33:39;101684.47;;;22.50;63.37
71964;BME280;59834;52.124;5.422;2022-08-25T06:36:06;101680.94;;;22.68;62.14
71964;BME280;59834;52.124;5.422;2022-08-25T06:38:33;101692.03;;;22.81;61.43
71964;BME280;59834;52.124;5.422;2022-08-25T06:41:04;101686.38;;;22.84;62.29
71964;BME280;59834;52.124;5.422;2022-08-25T06:43:33;101690.72;;;22.85;61.26
71964;BME280;59834;52.124;5.422;2022-08-25T06:46:19;101687.00;;;22.78;61.23
71964;BME280;59834;52.124;5.422;2022-08-25T06:48:46;101686.91;;;22.88;61.39
71964;BME280;59834;52.124;5.422;2022-08-25T06:51:15;101680.16;;;23.36;60.48
71964;BME280;59834;52.124;5.422;2022-08-25T06:53:43;101665.28;;;23.33;61.04
71964;BME280;59834;52.124;5.422;2022-08-25T06:56:11;101667.44;;;23.29;61.32
71964;BME280;59834;52.124;5.422;2022-08-25T06:58:43;101671.66;;;23.32;61.54
71964;BME280;59834;52.124;5.422;2022-08-25T07:01:22;101679.84;;;23.39;61.90
71964;BME280;59834;52.124;5.422;2022-08-25T07:03:56;101675.22;;;23.49;61.73
71964;BME280;59834;52.124;5.422;2022-08-25T07:06:29;101676.09;;;23.58;61.72
71964;BME280;59834;52.124;5.422;2022-08-25T07:08:57;101672.63;;;23.73;62.37
71964;BME280;59834;52.124;5.422;2022-08-25T07:11:24;101666.00;;;23.86;61.42
71964;BME280;59834;52.124;5.422;2022-08-25T07:13:51;101671.84;;;23.97;60.32
71964;BME280;59834;52.124;5.422;2022-08-25T07:16:19;101672.69;;;24.06;59.85
71964;BME280;59834;52.124;5.422;2022-08-25T07:18:47;101674.22;;;24.25;58.16
71964;BME280;59834;52.124;5.422;2022-08-25T07:21:14;101672.91;;;24.45;57.11
71964;BME280;59834;52.124;5.422;2022-08-25T07:23:41;101677.25;;;24.55;55.84
71964;BME280;59834;52.124;5.422;2022-08-25T07:26:15;101683.13;;;24.58;55.54
71964;BME280;59834;52.124;5.422;2022-08-25T07:29:06;101676.06;;;24.74;55.60
71964;BME280;59834;52.124;5.422;2022-08-25T07:31:33;101673.88;;;24.85;55.05
71964;BME280;59834;52.124;5.422;2022-08-25T07:34:00;101676.69;;;24.92;54.46
71964;BME280;59834;52.124;5.422;2022-08-25T07:36:46;101672.13;;;25.01;53.71
71964;BME280;59834;52.124;5.422;2022-08-25T07:39:13;101674.50;;;24.96;53.25
71964;BME280;59834;52.124;5.422;2022-08-25T07:41:40;101665.16;;;24.83;54.20
71964;BME280;59834;52.124;5.422;2022-08-25T07:44:09;101675.72;;;24.85;54.25
71964;BME280;59834;52.124;5.422;2022-08-25T07:46:37;101673.16;;;24.91;53.42
71964;BME280;59834;52.124;5.422;2022-08-25T07:49:04;101674.66;;;24.94;53.98
71964;BME280;59834;52.124;5.422;2022-08-25T07:51:42;101662.78;;;24.97;52.95
71964;BME280;59834;52.124;5.422;2022-08-25T07:54:29;101667.78;;;25.16;53.75
71964;BME280;59834;52.124;5.422;2022-08-25T07:57:00;101662.38;;;25.24;53.36
71964;BME280;59834;52.124;5.422;2022-08-25T07:59:26;101659.84;;;25.31;52.91
71964;BME280;59834;52.124;5.422;2022-08-25T08:01:53;101664.50;;;25.37;52.55
71964;BME280;59834;52.124;5.422;2022-08-25T08:04:19;101664.28;;;25.47;51.50
71964;BME280;59834;52.124;5.422;2022-08-25T08:06:46;101659.34;;;25.58;51.31
71964;BME280;59834;52.124;5.422;2022-08-25T08:09:12;101653.78;;;25.68;50.09
71964;BME280;59834;52.124;5.422;2022-08-25T08:11:39;101663.16;;;25.72;50.14
71964;BME280;59834;52.124;5.422;2022-08-25T08:14:19;101653.38;;;25.79;50.35
71964;BME280;59834;52.124;5.422;2022-08-25T08:16:45;101655.41;;;25.85;50.04
71964;BME280;59834;52.124;5.422;2022-08-25T08:19:12;101653.94;;;25.98;50.25
71964;BME280;59834;52.124;5.422;2022-08-25T08:21:39;101649.41;;;25.98;48.69
71964;BME280;59834;52.124;5.422;2022-08-25T08:24:05;101650.91;;;26.01;48.61
71964;BME280;59834;52.124;5.422;2022-08-25T08:26:52;101648.81;;;26.11;49.09
71964;BME280;59834;52.124;5.422;2022-08-25T08:29:24;101641.28;;;26.29;47.81
71964;BME280;59834;52.124;5.422;2022-08-25T08:31:51;101648.91;;;26.41;47.29
71964;BME280;59834;52.124;5.422;2022-08-25T08:34:17;101640.63;;;26.50;47.70
71964;BME280;59834;52.124;5.422;2022-08-25T08:36:44;101639.44;;;26.53;46.99
71964;BME280;59834;52.124;5.422;2022-08-25T08:39:11;101647.13;;;26.56;47.33
71964;BME280;59834;52.124;5.422;2022-08-25T08:55:50;101632.94;;;26.92;45.73
71964;BME280;59834;52.124;5.422;2022-08-25T08:58:47;101619.97;;;26.95;46.64
71964;BME280;59834;52.124;5.422;2022-08-25T09:01:34;101629.63;;;27.04;45.93
71964;BME280;59834;52.124;5.422;2022-08-25T09:06:57;101629.53;;;27.27;46.16
71964;BME280;59834;52.124;5.422;2022-08-25T09:09:30;101634.16;;;27.34;43.75
71964;BME280;59834;52.124;5.422;2022-08-25T09:15:17;101626.34;;;27.39;43.50
71964;BME280;59834;52.124;5.422;2022-08-25T09:23:13;101623.78;;;27.67;44.99
71964;BME280;59834;52.124;5.422;2022-08-25T09:26:06;101631.59;;;27.83;43.99
71964;BME280;59834;52.124;5.422;2022-08-25T09:28:51;101621.16;;;27.95;43.46
71964;BME280;59834;52.124;5.422;2022-08-25T09:31:35;101624.31;;;27.99;43.93
71964;BME280;59834;52.124;5.422;2022-08-25T09:34:12;101618.16;;;28.05;43.35
71964;BME280;59834;52.124;5.422;2022-08-25T09:36:42;101618.22;;;28.11;42.93
71964;BME280;59834;52.124;5.422;2022-08-25T09:39:10;101623.66;;;28.18;43.29
71964;BME280;59834;52.124;5.422;2022-08-25T09:41:47;101625.19;;;28.27;43.19
71964;BME280;59834;52.124;5.422;2022-08-25T09:49:44;101607.38;;;28.54;42.94
71964;BME280;59834;52.124;5.422;2022-08-25T09:52:34;101606.78;;;28.59;42.18
71964;BME280;59834;52.124;5.422;2022-08-25T09:55:25;101602.88;;;28.61;41.49
71964;BME280;59834;52.124;5.422;2022-08-25T09:57:54;101599.81;;;28.71;40.78
71964;BME280;59834;52.124;5.422;2022-08-25T10:00:24;101596.94;;;28.79;41.31
71964;BME280;59834;52.124;5.422;2022-08-25T10:03:20;101588.47;;;28.82;42.00
71964;BME280;59834;52.124;5.422;2022-08-25T10:06:06;101589.16;;;28.91;41.35
71964;BME280;59834;52.124;5.422;2022-08-25T10:08:52;101589.22;;;29.04;41.25
71964;BME280;59834;52.124;5.422;2022-08-25T10:14:04;101586.13;;;29.14;40.39
71964;BME280;59834;52.124;5.422;2022-08-25T10:16:32;101573.09;;;29.18;40.02
71964;BME280;59834;52.124;5.422;2022-08-25T10:19:11;101577.66;;;29.24;39.43
71964;BME280;59834;52.124;5.422;2022-08-25T10:21:40;101578.09;;;29.34;40.02
71964;BME280;59834;52.124;5.422;2022-08-25T10:24:10;101564.22;;;29.44;39.86
71964;BME280;59834;52.124;5.422;2022-08-25T10:26:56;101566.75;;;29.52;40.38
71964;BME280;59834;52.124;5.422;2022-08-25T10:29:37;101561.56;;;29.57;39.96
71964;BME280;59834;52.124;5.422;2022-08-25T10:32:17;101560.31;;;29.53;39.57
71964;BME280;59834;52.124;5.422;2022-08-25T10:34:54;101553.31;;;29.65;39.13
71964;BME280;59834;52.124;5.422;2022-08-25T10:37:31;101547.72;;;29.73;39.19
71964;BME280;59834;52.124;5.422;2022-08-25T10:40:19;101544.81;;;29.81;39.72
71964;BME280;59834;52.124;5.422;2022-08-25T10:43:18;101543.78;;;29.89;38.92
71964;BME280;59834;52.124;5.422;2022-08-25T10:51:37;101532.56;;;30.05;37.76
71964;BME280;59834;52.124;5.422;2022-08-25T10:54:31;101523.81;;;30.17;35.87
71964;BME280;59834;52.124;5.422;2022-08-25T11:00:10;101512.84;;;30.18;37.44
71964;BME280;59834;52.124;5.422;2022-08-25T11:05:37;101508.00;;;30.34;35.40
71964;BME280;59834;52.124;5.422;2022-08-25T11:08:10;101509.25;;;30.18;34.95
71964;BME280;59834;52.124;5.422;2022-08-25T11:13:37;101505.94;;;30.16;34.89
71964;BME280;59834;52.124;5.422;2022-08-25T11:16:13;101495.56;;;30.33;32.77
71964;BME280;59834;52.124;5.422;2022-08-25T11:21:55;101501.31;;;30.49;33.15
71964;BME280;59834;52.124;5.422;2022-08-25T11:24:33;101493.38;;;30.54;33.38
71964;BME280;59834;52.124;5.422;2022-08-25T11:27:04;101498.38;;;30.51;33.79
71964;BME280;59834;52.124;5.422;2022-08-25T11:29:35;101496.72;;;30.57;32.36
71964;BME280;59834;52.124;5.422;2022-08-25T11:32:05;101488.34;;;30.65;31.67
71964;BME280;59834;52.124;5.422;2022-08-25T11:34:34;101487.91;;;30.81;32.39
71964;BME280;59834;52.124;5.422;2022-08-25T11:37:28;101491.94;;;31.04;33.53
71964;BME280;59834;52.124;5.422;2022-08-25T11:40:03;101485.72;;;31.03;32.08
71964;BME280;59834;52.124;5.422;2022-08-25T11:42:47;101484.06;;;31.02;32.07
71964;BME280;59834;52.124;5.422;2022-08-25T11:45:28;101476.16;;;31.00;31.63
71964;BME280;59834;52.124;5.422;2022-08-25T11:51:04;101472.41;;;31.02;31.93
71964;BME280;59834;52.124;5.422;2022-08-25T11:56:37;101467.25;;;31.25;30.78
71964;BME280;59834;52.124;5.422;2022-08-25T11:59:07;101470.97;;;31.31;32.32
71964;BME280;59834;52.124;5.422;2022-08-25T12:12:36;101472.34;;;30.76;32.78
71964;BME280;59834;52.124;5.422;2022-08-25T12:17:41;101468.56;;;30.84;32.64
71964;BME280;59834;52.124;5.422;2022-08-25T12:20:07;101471.28;;;30.71;33.24
71964;BME280;59834;52.124;5.422;2022-08-25T12:25:27;101468.56;;;30.33;33.94
71964;BME280;59834;52.124;5.422;2022-08-25T12:28:28;101471.84;;;30.35;32.37
71964;BME280;59834;52.124;5.422;2022-08-25T12:31:08;101466.38;;;30.54;31.50
71964;BME280;59834;52.124;5.422;2022-08-25T12:33:51;101465.88;;;30.71;32.00
71964;BME280;59834;52.124;5.422;2022-08-25T12:36:31;101461.78;;;31.07;32.50
71964;BME280;59834;52.124;5.422;2022-08-25T12:39:20;101453.56;;;31.20;32.25
71964;BME280;59834;52.124;5.422;2022-08-25T12:41:53;101446.22;;;31.34;32.03
71964;BME280;59834;52.124;5.422;2022-08-25T12:44:36;101448.03;;;31.40;32.79
71964;BME280;59834;52.124;5.422;2022-08-25T12:47:24;101449.69;;;31.41;31.59
71964;BME280;59834;52.124;5.422;2022-08-25T12:56:17;101449.69;;;31.66;31.82
71964;BME280;59834;52.124;5.422;2022-08-25T12:59:04;101446.97;;;31.66;30.75
71964;BME280;59834;52.124;5.422;2022-08-25T13:07:10;101443.91;;;31.81;31.12
71964;BME280;59834;52.124;5.422;2022-08-25T13:10:02;101444.69;;;31.88;31.08
71964;BME280;59834;52.124;5.422;2022-08-25T13:12:39;101435.09;;;31.85;29.90
71964;BME280;59834;52.124;5.422;2022-08-25T13:15:15;101436.69;;;31.75;30.34
71964;BME280;59834;52.124;5.422;2022-08-25T13:17:50;101425.22;;;31.79;29.92
71964;BME280;59834;52.124;5.422;2022-08-25T13:20:23;101426.22;;;31.78;30.14
71964;BME280;59834;52.124;5.422;2022-08-25T13:22:52;101420.63;;;31.80;30.57
71964;BME280;59834;52.124;5.422;2022-08-25T13:25:32;101414.47;;;31.91;30.31
71964;BME280;59834;52.124;5.422;2022-08-25T13:28:04;101415.69;;;31.95;29.90
71964;BME280;59834;52.124;5.422;2022-08-25T13:30:34;101413.25;;;31.87;29.94
71964;BME280;59834;52.124;5.422;2022-08-25T13:33:18;101405.66;;;31.77;29.48
71964;BME280;59834;52.124;5.422;2022-08-25T13:35:49;101410.81;;;31.79;28.87
71964;BME280;59834;52.124;5.422;2022-08-25T13:38:18;101405.19;;;31.80;29.49
71964;BME280;59834;52.124;5.422;2022-08-25T13:40:44;101403.06;;;31.82;29.67
71964;BME280;59834;52.124;5.422;2022-08-25T13:43:12;101395.56;;;31.84;31.08
71964;BME280;59834;52.124;5.422;2022-08-25T13:45:45;101400.78;;;31.86;29.96
71964;BME280;59834;52.124;5.422;2022-08-25T13:48:19;101408.91;;;31.86;29.88
71964;BME280;59834;52.124;5.422;2022-08-25T13:51:06;101409.09;;;31.84;29.70
71964;BME280;59834;52.124;5.422;2022-08-25T13:53:36;101402.25;;;31.82;30.59
71964;BME280;59834;52.124;5.422;2022-08-25T13:56:02;101390.78;;;31.86;30.05
71964;BME280;59834;52.124;5.422;2022-08-25T13:58:32;101392.94;;;31.78;30.30
71964;BME280;59834;52.124;5.422;2022-08-25T14:01:23;101393.91;;;31.65;29.97
71964;BME280;59834;52.124;5.422;2022-08-25T14:09:48;101386.53;;;31.72;30.17
71964;BME280;59834;52.124;5.422;2022-08-25T14:12:46;101387.97;;;31.75;30.36
71964;BME280;59834;52.124;5.422;2022-08-25T14:18:02;101379.34;;;31.84;30.26
71964;BME280;59834;52.124;5.422;2022-08-25T14:20:31;101380.09;;;31.91;29.73
71964;BME280;59834;52.124;5.422;2022-08-25T14:23:08;101379.59;;;32.01;29.75
71964;BME280;59834;52.124;5.422;2022-08-25T14:25:41;101375.53;;;32.10;30.63
71964;BME280;59834;52.124;5.422;2022-08-25T14:28:12;101371.84;;;32.05;31.52
71964;BME280;59834;52.124;5.422;2022-08-25T14:30:43;101370.19;;;32.04;30.32
71964;BME280;59834;52.124;5.422;2022-08-25T14:33:13;101369.75;;;32.07;29.81
71964;BME280;59834;52.124;5.422;2022-08-25T14:35:42;101370.09;;;32.10;30.33
71964;BME280;59834;52.124;5.422;2022-08-25T14:38:13;101363.25;;;32.08;30.31
71964;BME280;59834;52.124;5.422;2022-08-25T14:40:40;101374.31;;;32.06;29.52
71964;BME280;59834;52.124;5.422;2022-08-25T14:43:07;101370.75;;;31.69;30.02
71964;BME280;59834;52.124;5.422;2022-08-25T14:45:37;101365.44;;;31.37;30.96
71964;BME280;59834;52.124;5.422;2022-08-25T14:48:07;101365.63;;;31.42;31.29
71964;BME280;59834;52.124;5.422;2022-08-25T14:50:36;101363.16;;;31.59;30.88
71964;BME280;59834;52.124;5.422;2022-08-25T14:53:07;101358.97;;;31.63;30.33